Time;durP1;ratioP1;P1;durP2;ratioP2;P2;SDS_P1;SDS_P2;PMS_P1;PMS_P2;Temp;Humidity;BMP_temperature;BMP_pressure;BME280_temperature;BME280_humidity;BME280_pressure;Samples;Min_cycle;Max_cycle;Signal;HPM_P1;HPM_P2
2022/05/25 00:00:01;;;;;;;5.35;2.17;;;;;;;11.58;100.00;98383.50;5036347;28;20117;-87
2022/05/25 00:02:27;;;;;;;4.55;1.90;;;;;;;11.68;100.00;98382.22;5037833;28;20506;-88
2022/05/25 00:04:54;;;;;;;5.40;1.98;;;;;;;11.71;100.00;98373.88;5041020;28;20063;-87
2022/05/25 00:07:22;;;;;;;3.90;2.20;;;;;;;11.70;100.00;98369.66;5043605;28;20467;-87
2022/05/25 00:09:49;;;;;;;4.45;1.90;;;;;;;11.64;100.00;98376.56;5038408;28;20048;-88
2022/05/25 00:12:17;;;;;;;3.17;2.28;;;;;;;11.67;100.00;98365.63;5041272;28;20471;-88
2022/05/25 00:14:43;;;;;;;2.92;2.40;;;;;;;11.78;100.00;98371.19;5036189;28;20033;-86
2022/05/25 00:17:09;;;;;;;5.95;2.40;;;;;;;11.66;100.00;98352.72;5035758;28;20036;-86
2022/05/25 00:22:20;;;;;;;4.00;2.10;;;;;;;11.51;100.00;98361.75;5040505;28;20054;-88
2022/05/25 00:24:46;;;;;;;5.53;2.45;;;;;;;11.40;100.00;98360.63;5041252;28;20053;-90
2022/05/25 00:27:11;;;;;;;8.25;2.47;;;;;;;11.43;100.00;98362.81;5040987;28;20453;-88
2022/05/25 00:29:37;;;;;;;5.40;2.45;;;;;;;11.43;100.00;98359.41;5043128;28;20037;-88
2022/05/25 00:32:04;;;;;;;5.40;2.60;;;;;;;11.38;100.00;98364.50;5046551;28;20467;-90
2022/05/25 00:34:30;;;;;;;8.48;2.28;;;;;;;11.41;100.00;98356.19;5037655;28;20033;-88
2022/05/25 00:36:56;;;;;;;2.72;2.25;;;;;;;11.72;100.00;98364.97;5043732;28;20037;-87
2022/05/25 00:39:23;;;;;;;8.30;2.78;;;;;;;11.63;100.00;98353.16;5041318;28;20032;-90
2022/05/25 00:41:51;;;;;;;6.72;2.10;;;;;;;11.66;100.00;98347.47;5026027;28;20021;-88
2022/05/25 00:44:17;;;;;;;3.28;2.13;;;;;;;11.93;100.00;98352.41;5039598;28;20892;-88
2022/05/25 00:46:42;;;;;;;6.70;2.10;;;;;;;12.02;100.00;98356.41;5042809;28;20035;-88
2022/05/25 00:49:24;;;;;;;3.00;2.15;;;;;;;11.83;100.00;98356.38;5046134;28;20041;-89
2022/05/25 00:52:04;;;;;;;5.03;2.40;;;;;;;11.77;100.00;98346.72;5044344;28;20063;-88
2022/05/25 00:54:34;;;;;;;6.03;1.92;;;;;;;11.98;100.00;98344.66;5044162;28;20033;-89
2022/05/25 00:57:05;;;;;;;4.25;1.92;;;;;;;11.87;100.00;98343.56;5043873;28;20040;-90
2022/05/25 00:59:36;;;;;;;3.35;2.20;;;;;;;11.93;100.00;98341.88;5044003;28;20036;-88
2022/05/25 01:02:02;;;;;;;4.43;2.05;;;;;;;11.62;100.00;98343.66;5045067;28;20033;-88
2022/05/25 01:04:28;;;;;;;5.25;2.45;;;;;;;11.54;100.00;98344.75;5046433;28;20029;-88
2022/05/25 01:06:56;;;;;;;4.18;1.80;;;;;;;11.69;100.00;98341.75;5043030;28;20038;-88
2022/05/25 01:09:25;;;;;;;2.72;2.13;;;;;;;11.54;100.00;98326.34;5044429;28;20033;-87
2022/05/25 01:12:10;;;;;;;2.78;1.90;;;;;;;11.71;100.00;98337.09;5040189;28;20049;-88
2022/05/25 01:14:42;;;;;;;3.40;1.90;;;;;;;11.56;100.00;98337.44;5035233;28;20025;-88
2022/05/25 01:17:21;;;;;;;4.68;2.08;;;;;;;11.60;100.00;98337.81;5044954;28;20024;-88
2022/05/25 01:19:58;;;;;;;2.40;1.80;;;;;;;11.62;100.00;98323.44;5044471;28;20040;-88
2022/05/25 01:22:40;;;;;;;2.50;1.98;;;;;;;11.71;100.00;98316.88;5039093;28;20104;-88
2022/05/25 01:25:11;;;;;;;3.63;2.03;;;;;;;11.68;100.00;98316.50;5040560;28;20471;-89
2022/05/25 01:27:43;;;;;;;3.30;2.00;;;;;;;11.74;100.00;98315.59;5044752;28;20052;-89
2022/05/25 01:30:19;;;;;;;7.40;2.30;;;;;;;12.00;100.00;98317.13;5047948;28;20352;-89
2022/05/25 01:33:10;;;;;;;2.88;2.03;;;;;;;12.03;100.00;98317.72;5043545;28;20033;-89
2022/05/25 01:36:00;;;;;;;5.72;2.22;;;;;;;11.99;100.00;98312.88;5040120;28;20087;-90
2022/05/25 01:38:30;;;;;;;4.55;2.40;;;;;;;11.99;100.00;98306.84;5034039;28;20124;-88
2022/05/25 01:41:21;;;;;;;4.55;2.20;;;;;;;11.91;100.00;98310.56;5044251;28;20471;-90
2022/05/25 01:44:00;;;;;;;3.45;2.20;;;;;;;12.00;100.00;98305.81;5035207;28;20396;-88
2022/05/25 01:46:31;;;;;;;3.35;1.80;;;;;;;11.76;100.00;98310.94;5046322;28;20035;-87
2022/05/25 01:49:01;;;;;;;6.15;2.28;;;;;;;11.75;100.00;98311.16;5039242;28;20095;-89
2022/05/25 01:51:47;;;;;;;4.35;1.90;;;;;;;11.93;100.00;98310.34;5038420;28;20044;-89
2022/05/25 01:54:18;;;;;;;4.20;2.70;;;;;;;12.03;100.00;98301.94;5040691;28;20037;-88
2022/05/25 01:56:48;;;;;;;3.95;2.13;;;;;;;12.10;100.00;98297.41;5043453;28;20041;-88
2022/05/25 01:59:16;;;;;;;4.00;2.15;;;;;;;11.99;100.00;98294.47;5033347;28;20033;-88
2022/05/25 02:04:49;;;;;;;3.53;2.10;;;;;;;11.62;100.00;98293.72;5041005;28;20041;-89
2022/05/25 02:07:27;;;;;;;6.07;2.08;;;;;;;11.99;100.00;98286.59;5044378;28;20029;-91
2022/05/25 02:10:10;;;;;;;4.18;2.20;;;;;;;11.93;100.00;98287.47;5041599;28;20411;-88
2022/05/25 02:12:41;;;;;;;3.92;1.95;;;;;;;12.08;100.00;98283.66;5038133;28;20120;-88
2022/05/25 02:15:25;;;;;;;5.25;2.28;;;;;;;11.86;100.00;98284.94;5038925;28;20416;-89
2022/05/25 02:17:58;;;;;;;3.15;2.25;;;;;;;11.99;100.00;98280.53;5040195;28;20434;-88
2022/05/25 02:20:33;;;;;;;4.88;2.50;;;;;;;11.78;100.00;98279.97;5041271;28;20449;-90
2022/05/25 02:23:34;;;;;;;4.28;2.33;;;;;;;11.84;100.00;98276.47;5039832;28;20057;-88
2022/05/25 02:26:17;;;;;;;6.93;2.40;;;;;;;11.62;100.00;98285.84;5026653;28;20440;-87
2022/05/25 02:28:48;;;;;;;2.42;1.45;;;;;;;11.67;100.00;98280.72;5044387;28;20060;-90
2022/05/25 02:31:19;;;;;;;2.88;2.17;;;;;;;11.71;100.00;98289.75;5040036;28;20136;-88
2022/05/25 02:33:49;;;;;;;5.22;2.70;;;;;;;11.64;100.00;98294.31;5044787;28;20116;-87
2022/05/25 02:36:17;;;;;;;4.00;2.42;;;;;;;11.65;100.00;98293.28;5039455;28;20030;-89
2022/05/25 02:38:44;;;;;;;4.68;2.20;;;;;;;11.88;100.00;98282.06;5039858;28;20033;-89
2022/05/25 02:41:12;;;;;;;4.15;2.65;;;;;;;11.79;100.00;98284.22;5043226;28;20025;-89
2022/05/25 02:43:38;;;;;;;4.32;2.42;;;;;;;11.91;100.00;98275.56;5042762;28;20025;-88
2022/05/25 02:46:06;;;;;;;6.57;2.30;;;;;;;11.81;100.00;98286.63;5040678;28;20034;-90
2022/05/25 02:48:33;;;;;;;2.55;1.90;;;;;;;12.00;100.00;98290.81;5043248;28;20024;-89
2022/05/25 02:50:59;;;;;;;6.00;2.28;;;;;;;11.92;100.00;98287.69;5040816;28;20426;-89
2022/05/25 02:53:24;;;;;;;3.75;2.42;;;;;;;11.75;100.00;98288.28;5043929;28;20032;-89
2022/05/25 02:55:50;;;;;;;4.50;2.33;;;;;;;11.89;100.00;98288.13;5044299;28;20040;-88
2022/05/25 02:58:16;;;;;;;6.05;2.50;;;;;;;11.94;100.00;98296.16;5040871;28;20024;-90
2022/05/25 03:00:42;;;;;;;5.30;2.40;;;;;;;11.90;100.00;98295.81;5036695;28;20017;-88
2022/05/25 03:03:08;;;;;;;3.88;2.40;;;;;;;11.88;100.00;98291.78;5027360;28;20029;-88
2022/05/25 03:05:33;;;;;;;3.88;2.30;;;;;;;11.91;100.00;98286.91;5044265;28;20025;-89
2022/05/25 03:07:59;;;;;;;3.45;1.95;;;;;;;11.88;100.00;98284.69;5034196;28;20489;-88
2022/05/25 03:10:24;;;;;;;5.68;2.20;;;;;;;11.71;100.00;98289.75;5040041;28;20029;-89
2022/05/25 03:12:50;;;;;;;7.57;2.78;;;;;;;11.70;100.00;98275.00;5039493;28;20024;-88
2022/05/25 03:15:20;;;;;;;4.82;2.38;;;;;;;11.83;100.00;98280.13;5035755;28;20132;-87
2022/05/25 03:17:46;;;;;;;6.78;2.42;;;;;;;11.88;100.00;98287.31;5040504;28;20029;-88
2022/05/25 03:20:13;;;;;;;5.10;2.10;;;;;;;11.95;100.00;98288.06;5046545;28;20025;-88
2022/05/25 03:22:40;;;;;;;5.38;2.20;;;;;;;11.93;100.00;98278.78;5042286;28;20033;-88
2022/05/25 03:25:06;;;;;;;4.32;2.40;;;;;;;11.90;100.00;98279.22;5039329;28;20028;-89
2022/05/25 03:27:32;;;;;;;3.95;2.58;;;;;;;11.82;100.00;98275.06;5039182;28;20039;-90
2022/05/25 03:29:57;;;;;;;4.75;2.17;;;;;;;11.93;100.00;98269.06;5041419;28;20407;-88
2022/05/25 03:32:23;;;;;;;6.00;2.33;;;;;;;11.72;100.00;98259.81;5039940;28;20140;-88
2022/05/25 03:34:49;;;;;;;5.28;2.40;;;;;;;11.71;100.00;98264.28;5040193;28;20464;-87
2022/05/25 03:37:14;;;;;;;3.08;1.88;;;;;;;11.68;100.00;98271.81;5018437;28;20029;-87
2022/05/25 03:39:41;;;;;;;5.90;2.67;;;;;;;11.47;100.00;98265.97;5037044;28;20037;-88
2022/05/25 03:42:08;;;;;;;7.30;2.38;;;;;;;11.45;100.00;98257.50;5033694;28;20030;-86
2022/05/25 03:44:35;;;;;;;3.90;2.30;;;;;;;11.51;100.00;98254.00;5042335;28;20037;-88
2022/05/25 03:47:01;;;;;;;4.78;2.40;;;;;;;11.42;100.00;98263.22;5042151;28;20037;-87
2022/05/25 03:49:27;;;;;;;3.83;2.10;;;;;;;11.37;100.00;98274.38;5034960;28;20038;-89
2022/05/25 03:51:53;;;;;;;5.95;2.50;;;;;;;11.52;100.00;98268.75;5037057;28;20052;-88
2022/05/25 03:54:19;;;;;;;4.57;2.25;;;;;;;11.53;100.00;98270.34;5041724;28;20040;-88
2022/05/25 03:56:45;;;;;;;4.47;2.60;;;;;;;11.46;100.00;98263.56;5050090;28;20033;-89
2022/05/25 03:59:10;;;;;;;5.03;2.60;;;;;;;11.54;100.00;98256.19;5047032;28;20480;-86
2022/05/25 04:01:36;;;;;;;5.50;2.50;;;;;;;11.45;100.00;98249.63;5041398;28;20025;-88
2022/05/25 04:04:03;;;;;;;6.40;2.38;;;;;;;11.46;100.00;98253.84;5039954;28;20390;-87
2022/05/25 04:06:28;;;;;;;3.75;2.38;;;;;;;11.44;100.00;98258.53;5033492;28;20108;-88
2022/05/25 04:08:54;;;;;;;5.18;2.88;;;;;;;11.50;100.00;98249.75;5023888;28;20049;-89
2022/05/25 04:11:20;;;;;;;6.18;2.63;;;;;;;11.65;100.00;98252.00;5041635;28;20060;-87
2022/05/25 04:13:45;;;;;;;7.40;2.90;;;;;;;11.64;100.00;98247.78;5038359;28;20367;-88
2022/05/25 04:16:13;;;;;;;4.88;2.50;;;;;;;11.65;100.00;98243.34;5047571;28;20037;-88
2022/05/25 04:18:39;;;;;;;5.78;2.30;;;;;;;11.80;100.00;98249.00;5040043;28;20164;-89
2022/05/25 04:21:04;;;;;;;4.60;2.40;;;;;;;11.76;100.00;98247.81;5029302;28;20102;-87
2022/05/25 04:23:30;;;;;;;5.95;2.70;;;;;;;11.79;100.00;98242.16;5043980;28;20034;-88
2022/05/25 04:25:56;;;;;;;3.30;2.58;;;;;;;11.96;100.00;98246.78;5044146;28;20120;-86
2022/05/25 04:28:22;;;;;;;5.43;3.10;;;;;;;11.99;100.00;98247.13;5041029;28;20029;-87
2022/05/25 04:30:48;;;;;;;3.20;2.80;;;;;;;12.03;100.00;98241.44;5046743;28;20053;-87
2022/05/25 04:33:15;;;;;;;5.57;2.92;;;;;;;12.05;100.00;98249.91;5043815;28;20039;-88
2022/05/25 04:35:41;;;;;;;6.18;3.28;;;;;;;12.00;100.00;98247.94;5046852;28;20044;-87
2022/05/25 04:38:07;;;;;;;5.57;3.00;;;;;;;12.10;100.00;98242.97;5041132;28;20029;-87
2022/05/25 04:40:36;;;;;;;4.43;3.40;;;;;;;12.12;100.00;98240.13;5042355;28;20509;-86
2022/05/25 04:43:22;;;;;;;5.60;3.20;;;;;;;12.08;100.00;98241.56;5038994;28;20368;-86
2022/05/25 04:45:51;;;;;;;5.53;3.50;;;;;;;12.27;100.00;98218.66;5036861;28;20036;-88
2022/05/25 04:48:23;;;;;;;4.55;3.45;;;;;;;12.25;100.00;98229.38;5049822;28;20034;-87
2022/05/25 04:50:50;;;;;;;5.03;3.38;;;;;;;12.17;100.00;98224.47;5040763;28;20383;-89
2022/05/25 04:53:18;;;;;;;9.57;3.92;;;;;;;12.19;100.00;98235.56;5043053;28;20033;-87
2022/05/25 04:58:33;;;;;;;5.95;3.72;;;;;;;12.09;100.00;98222.94;5037306;28;20036;-88
2022/05/25 05:00:59;;;;;;;10.77;3.58;;;;;;;12.16;100.00;98224.69;5039153;28;20026;-87
2022/05/25 05:03:26;;;;;;;11.43;3.80;;;;;;;12.22;100.00;98234.31;5034558;28;20044;-86
2022/05/25 05:05:53;;;;;;;4.68;3.72;;;;;;;12.19;100.00;98242.66;5037509;28;20065;-88
2022/05/25 05:08:19;;;;;;;8.95;4.53;;;;;;;12.03;100.00;98237.00;5028281;28;20471;-86
2022/05/25 05:10:45;;;;;;;6.25;4.45;;;;;;;12.03;100.00;98242.28;5041275;28;20108;-88
2022/05/25 05:13:11;;;;;;;11.68;3.92;;;;;;;12.16;100.00;98240.47;5038951;28;20036;-85
2022/05/25 05:15:39;;;;;;;8.02;3.80;;;;;;;12.29;100.00;98232.38;5038566;28;20029;-85
2022/05/25 05:18:05;;;;;;;7.05;3.95;;;;;;;12.16;100.00;98232.56;5022174;28;20513;-87
2022/05/25 05:20:31;;;;;;;6.78;4.00;;;;;;;12.43;100.00;98238.25;5041921;28;20026;-86
2022/05/25 05:22:57;;;;;;;8.15;3.97;;;;;;;12.49;100.00;98226.00;5044352;28;20032;-87
2022/05/25 05:25:23;;;;;;;8.35;4.18;;;;;;;12.49;100.00;98229.47;5037629;28;20231;-86
2022/05/25 05:27:49;;;;;;;7.65;4.55;;;;;;;12.60;100.00;98230.50;5045127;28;20048;-87
2022/05/25 05:30:18;;;;;;;5.50;3.05;;;;;;;12.76;100.00;98228.19;5043746;28;20049;-87
2022/05/25 05:32:44;;;;;;;8.65;3.83;;;;;;;12.89;100.00;98227.19;5041895;28;20391;-89
2022/05/25 05:35:10;;;;;;;7.55;3.70;;;;;;;12.78;100.00;98228.78;5037237;28;20034;-86
2022/05/25 05:37:41;;;;;;;9.73;3.80;;;;;;;13.02;100.00;98232.19;5036660;28;20037;-88
2022/05/25 05:40:10;;;;;;;5.15;3.42;;;;;;;13.00;100.00;98219.28;5037419;28;20390;-89
2022/05/25 05:42:39;;;;;;;11.88;4.70;;;;;;;13.00;100.00;98226.38;5046924;28;20035;-89
2022/05/25 05:45:36;;;;;;;11.18;4.40;;;;;;;12.83;100.00;98227.06;5034686;28;20152;-87
2022/05/25 05:48:19;;;;;;;6.55;4.28;;;;;;;13.12;100.00;98227.16;5028115;28;20049;-89
2022/05/25 05:50:48;;;;;;;9.30;3.67;;;;;;;12.71;100.00;98221.78;5034754;28;20036;-89
2022/05/25 05:53:15;;;;;;;6.10;4.50;;;;;;;13.05;100.00;98215.16;5049941;28;20045;-87
2022/05/25 05:55:42;;;;;;;11.20;5.85;;;;;;;13.02;100.00;98212.97;5047818;28;20108;-88
2022/05/25 05:58:08;;;;;;;9.63;4.25;;;;;;;13.04;100.00;98216.19;5048015;28;20039;-90
2022/05/25 06:00:34;;;;;;;10.45;3.88;;;;;;;12.73;100.00;98228.66;5041137;28;20028;-89
2022/05/25 06:03:01;;;;;;;10.23;3.70;;;;;;;12.85;100.00;98216.31;5040424;28;20032;-87
2022/05/25 06:05:27;;;;;;;9.10;3.90;;;;;;;12.83;100.00;98232.31;5046585;28;20025;-89
2022/05/25 06:07:53;;;;;;;8.30;3.45;;;;;;;12.97;100.00;98224.19;5041151;28;20020;-87
2022/05/25 06:10:19;;;;;;;5.70;3.03;;;;;;;13.19;100.00;98205.97;5038414;28;20191;-90
2022/05/25 06:12:46;;;;;;;10.32;4.07;;;;;;;13.25;100.00;98206.84;5044051;28;20495;-86
2022/05/25 06:20:40;;;;;;;14.30;4.68;;;;;;;13.23;100.00;98211.56;5045588;28;20024;-87
2022/05/25 06:23:05;;;;;;;8.43;3.40;;;;;;;13.55;100.00;98225.16;5046145;28;20483;-88
2022/05/25 06:25:31;;;;;;;6.60;3.05;;;;;;;13.68;100.00;98203.00;5044252;28;20136;-89
2022/05/25 06:27:57;;;;;;;5.10;2.85;;;;;;;13.80;100.00;98202.94;5046621;28;20025;-89
2022/05/25 06:30:24;;;;;;;4.15;2.42;;;;;;;14.12;100.00;98207.69;5040090;28;20103;-89
2022/05/25 06:32:50;;;;;;;10.38;3.17;;;;;;;14.22;100.00;98206.28;5046603;28;20033;-88
2022/05/25 06:35:16;;;;;;;7.30;2.63;;;;;;;13.88;100.00;98206.22;5052071;28;20048;-89
2022/05/25 06:37:41;;;;;;;7.47;2.60;;;;;;;13.84;100.00;98205.91;5046639;28;20026;-90
2022/05/25 06:40:09;;;;;;;8.00;2.60;;;;;;;14.05;100.00;98212.34;5048451;28;20041;-86
2022/05/25 06:42:36;;;;;;;9.57;3.00;;;;;;;14.41;100.00;98205.03;5057558;28;20029;-85
2022/05/25 06:45:01;;;;;;;8.10;2.72;;;;;;;14.66;100.00;98203.81;5048473;28;20025;-85
2022/05/25 06:47:27;;;;;;;6.38;2.38;;;;;;;14.50;100.00;98188.75;5051995;28;20059;-85
2022/05/25 06:49:54;;;;;;;6.45;2.58;;;;;;;14.78;100.00;98192.38;5038159;28;20120;-89
2022/05/25 06:52:20;;;;;;;7.78;3.10;;;;;;;15.10;100.00;98189.91;5047766;28;20399;-89
2022/05/25 06:54:46;;;;;;;6.05;2.70;;;;;;;15.38;100.00;98193.41;5046238;28;20057;-86
2022/05/25 06:57:12;;;;;;;6.55;2.67;;;;;;;15.22;100.00;98191.59;5040138;28;20458;-87
2022/05/25 06:59:37;;;;;;;4.45;2.35;;;;;;;15.60;100.00;98178.56;5038554;28;20029;-85
2022/05/25 07:02:03;;;;;;;9.02;2.45;;;;;;;15.94;100.00;98175.75;5037822;28;20078;-91
2022/05/25 07:04:29;;;;;;;10.38;2.97;;;;;;;16.18;100.00;98167.47;5054279;28;20475;-88
2022/05/25 07:06:55;;;;;;;7.20;2.13;;;;;;;16.35;100.00;98165.50;5046692;28;20057;-87
2022/05/25 07:09:21;;;;;;;3.78;2.33;;;;;;;16.68;100.00;98166.22;5041235;28;20140;-89
2022/05/25 07:11:51;;;;;;;6.72;2.13;;;;;;;16.93;100.00;98170.09;5044536;28;20029;-86
2022/05/25 07:14:18;;;;;;;10.30;2.70;;;;;;;15.94;100.00;98151.94;5036939;28;20029;-90
2022/05/25 07:16:43;;;;;;;11.50;2.58;;;;;;;16.37;100.00;98152.81;5043276;28;20037;-88
2022/05/25 07:19:09;;;;;;;5.20;2.05;;;;;;;15.73;100.00;98154.38;5041006;28;20120;-88
2022/05/25 07:21:38;;;;;;;9.05;2.75;;;;;;;15.61;100.00;98148.41;5042424;28;20022;-89
2022/05/25 07:24:03;;;;;;;7.68;2.17;;;;;;;15.74;100.00;98140.09;5039640;28;20392;-89
2022/05/25 07:26:31;;;;;;;3.58;2.20;;;;;;;15.71;100.00;98124.69;5043036;28;20033;-87
2022/05/25 07:28:57;;;;;;;4.53;2.03;;;;;;;15.83;100.00;98133.28;5039794;28;20126;-87
2022/05/25 07:31:40;;;;;;;3.47;2.30;;;;;;;15.01;100.00;98127.16;5036778;28;20510;-86
2022/05/25 07:34:11;;;;;;;6.43;2.50;;;;;;;14.86;100.00;98120.63;5042577;28;20033;-89
2022/05/25 07:36:38;;;;;;;8.43;2.22;;;;;;;15.20;100.00;98120.50;5043078;28;20039;-88
2022/05/25 07:39:08;;;;;;;7.13;2.72;;;;;;;15.47;100.00;98111.00;5038554;28;20490;-88
2022/05/25 07:41:39;;;;;;;6.50;2.33;;;;;;;15.40;100.00;98113.84;5041337;28;20018;-90
2022/05/25 07:44:09;;;;;;;7.82;2.60;;;;;;;14.78;100.00;98110.50;5041064;28;20041;-87
2022/05/25 07:46:35;;;;;;;7.97;2.40;;;;;;;14.92;100.00;98113.56;5039971;28;20033;-89
2022/05/25 07:49:01;;;;;;;7.65;2.25;;;;;;;14.94;100.00;98127.31;5038969;28;20030;-89
2022/05/25 07:51:28;;;;;;;7.07;2.33;;;;;;;14.95;100.00;98127.09;5039462;28;20083;-90
2022/05/25 07:53:57;;;;;;;6.88;2.50;;;;;;;14.62;100.00;98120.81;5038985;28;20044;-89
2022/05/25 07:56:33;;;;;;;4.07;2.13;;;;;;;14.74;100.00;98133.13;5043773;28;20040;-87
2022/05/25 07:59:01;;;;;;;9.57;2.53;;;;;;;14.89;100.00;98124.63;5036510;28;20033;-89
2022/05/25 08:07:05;;;;;;;6.40;2.25;;;;;;;14.84;100.00;98128.00;5037875;28;20045;-89
2022/05/25 08:09:32;;;;;;;7.60;2.40;;;;;;;15.20;100.00;98125.78;5040185;28;20395;-89
2022/05/25 08:11:58;;;;;;;9.77;2.53;;;;;;;15.16;100.00;98126.53;5038175;28;20109;-89
2022/05/25 08:14:25;;;;;;;9.07;2.67;;;;;;;14.42;100.00;98135.34;5041397;28;20383;-90
2022/05/25 08:16:53;;;;;;;7.35;2.10;;;;;;;15.24;100.00;98126.88;5043256;28;20037;-90
2022/05/25 08:19:18;;;;;;;9.13;2.30;;;;;;;14.75;100.00;98129.47;5041313;28;20088;-89
2022/05/25 08:21:46;;;;;;;4.90;2.20;;;;;;;15.44;100.00;98128.16;5045228;28;20041;-88
2022/05/25 08:24:11;;;;;;;5.90;2.20;;;;;;;15.56;100.00;98134.09;5035943;28;20033;-87
2022/05/25 08:26:38;;;;;;;10.68;2.97;;;;;;;15.64;100.00;98129.41;5042019;28;20037;-87
2022/05/25 08:29:03;;;;;;;7.45;2.92;;;;;;;15.76;100.00;98139.81;5042035;28;20029;-89
2022/05/25 08:31:29;;;;;;;10.55;2.67;;;;;;;15.97;100.00;98138.19;5046495;28;20037;-88
2022/05/25 08:33:55;;;;;;;6.85;2.50;;;;;;;15.99;100.00;98136.88;5044465;28;20037;-88
2022/05/25 08:36:21;;;;;;;6.47;2.83;;;;;;;15.90;100.00;98133.09;5046248;28;20029;-87
2022/05/25 08:38:46;;;;;;;9.77;3.17;;;;;;;16.20;100.00;98134.38;5043369;28;20025;-89
2022/05/25 08:41:12;;;;;;;6.88;2.35;;;;;;;16.09;100.00;98135.38;5043344;28;20080;-88
2022/05/25 08:43:45;;;;;;;11.68;2.78;;;;;;;15.77;100.00;98144.88;5043502;28;20033;-88
2022/05/25 08:46:16;;;;;;;4.13;2.20;;;;;;;16.12;100.00;98154.22;5040596;28;20275;-84
2022/05/25 08:48:43;;;;;;;5.47;2.30;;;;;;;15.98;100.00;98160.97;5046048;28;20438;-85
2022/05/25 08:51:13;;;;;;;6.60;2.70;;;;;;;15.95;100.00;98153.53;5046105;28;20480;-85
2022/05/25 08:53:39;;;;;;;5.95;2.20;;;;;;;16.44;100.00;98149.13;5038274;28;20056;-84
2022/05/25 08:56:19;;;;;;;8.07;2.10;;;;;;;17.50;100.00;98149.13;5043211;28;21838;-86
2022/05/25 08:58:49;;;;;;;8.07;1.83;;;;;;;17.75;100.00;98150.22;5048830;28;20021;-85
2022/05/25 09:01:28;;;;;;;12.27;2.90;;;;;;;17.36;100.00;98156.75;5031978;28;20483;-86
2022/05/25 09:04:08;;;;;;;4.45;1.90;;;;;;;18.03;100.00;98150.00;5042419;28;20037;-86
2022/05/25 09:07:02;;;;;;;6.72;2.20;;;;;;;18.45;100.00;98156.06;5044299;28;20040;-85
2022/05/25 09:09:31;;;;;;;;;;;;;;;18.93;100.00;98145.06;5042814;28;20036;-85
2022/05/25 09:12:05;;;;;;;3.63;1.60;;;;;;;19.70;100.00;98151.91;5075713;28;19917;-85
2022/05/25 09:14:37;;;;;;;8.55;2.13;;;;;;;19.35;100.00;98161.69;5044841;28;20124;-84
2022/05/25 09:17:09;;;;;;;5.57;2.00;;;;;;;18.98;100.00;98151.19;5049283;28;20021;-87
2022/05/25 09:19:40;;;;;;;4.93;1.70;;;;;;;19.81;100.00;98156.06;5046906;28;20032;-87
2022/05/25 09:22:10;;;;;;;6.78;2.83;;;;;;;19.14;100.00;98153.78;5047618;28;20025;-86
2022/05/25 09:24:36;;;;;;;3.65;1.77;;;;;;;19.08;100.00;98160.97;5051654;28;20120;-85
2022/05/25 09:27:05;;;;;;;2.85;1.40;;;;;;;19.07;100.00;98164.72;5043552;28;20104;-86
2022/05/25 09:29:31;;;;;;;2.08;1.40;;;;;;;18.87;100.00;98170.06;5047760;28;20083;-86
2022/05/25 09:32:03;;;;;;;2.25;1.30;;;;;;;17.97;100.00;98178.38;5046514;28;20530;-87
2022/05/25 09:34:38;;;;;;;2.40;1.40;;;;;;;18.30;100.00;98178.94;5045665;28;20525;-87
2022/05/25 09:37:23;;;;;;;2.63;1.33;;;;;;;17.37;100.00;98168.94;5045651;28;20104;-88
2022/05/25 09:39:51;;;;;;;6.97;1.73;;;;;;;17.46;100.00;98177.19;5042269;28;20041;-87
2022/05/25 09:42:20;;;;;;;4.15;1.67;;;;;;;17.70;100.00;98166.13;5041248;28;20139;-88
2022/05/25 09:44:52;;;;;;;1.95;1.67;;;;;;;17.56;100.00;98166.63;5047999;28;20196;-89
2022/05/25 09:47:24;;;;;;;2.45;1.30;;;;;;;17.56;100.00;98176.44;5040257;28;20364;-88
2022/05/25 09:49:55;;;;;;;2.28;1.38;;;;;;;17.95;100.00;98162.69;5040298;28;20029;-90
2022/05/25 09:52:36;;;;;;;1.45;1.30;;;;;;;18.21;100.00;98175.22;5039966;28;20036;-89
2022/05/25 09:55:06;;;;;;;6.20;1.52;;;;;;;18.89;100.00;98184.69;5048243;28;20037;-87
2022/05/25 09:57:49;;;;;;;1.45;1.20;;;;;;;17.74;100.00;98184.97;5048001;28;20034;-86
2022/05/25 10:00:23;;;;;;;1.48;1.20;;;;;;;18.11;100.00;98176.81;5044757;28;20108;-90
2022/05/25 10:02:58;;;;;;;2.30;1.40;;;;;;;18.32;100.00;98192.75;5040890;28;20028;-87
2022/05/25 10:05:27;;;;;;;2.22;1.30;;;;;;;18.62;100.00;98185.81;5044241;28;20120;-85
2022/05/25 10:08:18;;;;;;;1.65;1.50;;;;;;;18.90;100.00;98185.47;5045297;28;20048;-86
2022/05/25 10:10:59;;;;;;;4.95;1.30;;;;;;;19.10;100.00;98185.44;5030932;28;20041;-87
2022/05/25 10:13:37;;;;;;;1.50;1.20;;;;;;;18.87;100.00;98181.53;5044753;28;20032;-87
2022/05/25 10:16:21;;;;;;;3.72;1.55;;;;;;;18.61;100.00;98178.91;5046017;28;20021;-87
2022/05/25 10:18:48;;;;;;;2.80;1.50;;;;;;;19.02;100.00;98188.69;5045184;28;20031;-87
2022/05/25 10:21:31;;;;;;;2.15;1.40;;;;;;;18.50;100.00;98191.41;5040549;28;20029;-87
2022/05/25 10:23:58;;;;;;;2.08;1.50;;;;;;;17.96;100.00;98195.38;5036720;28;20036;-86
2022/05/25 10:26:35;;;;;;;1.40;1.30;;;;;;;17.65;100.00;98190.81;5048254;28;20120;-87
2022/05/25 10:29:09;;;;;;;2.97;1.45;;;;;;;18.04;100.00;98192.19;5037265;28;20488;-86
2022/05/25 10:37:45;;;;;;;1.50;1.40;;;;;;;17.69;100.00;98175.94;5038769;28;20054;-87
2022/05/25 10:40:10;;;;;;;2.40;1.60;;;;;;;17.82;100.00;98184.47;5021274;28;20112;-86
2022/05/25 10:42:37;;;;;;;1.88;1.30;;;;;;;17.86;100.00;98185.53;5042099;28;20055;-87
2022/05/25 10:45:11;;;;;;;1.58;1.30;;;;;;;17.41;100.00;98183.31;5037623;28;20040;-85
2022/05/25 10:47:51;;;;;;;3.33;1.80;;;;;;;17.35;100.00;98191.50;5044389;28;20120;-86
2022/05/25 10:50:32;;;;;;;1.52;1.40;;;;;;;17.58;100.00;98186.78;5042564;28;20083;-86
2022/05/25 10:53:29;;;;;;;2.47;1.42;;;;;;;17.51;100.00;98189.69;5041108;28;20036;-85
2022/05/25 10:56:22;;;;;;;2.13;1.30;;;;;;;17.63;100.00;98195.56;5042055;28;20044;-88
2022/05/25 10:58:50;;;;;;;2.63;1.27;;;;;;;17.64;100.00;98196.34;5041158;28;20140;-87
2022/05/25 11:01:37;;;;;;;1.00;1.00;;;;;;;17.67;100.00;98198.47;5029465;28;20271;-86
2022/05/25 11:04:02;;;;;;;1.40;1.30;;;;;;;18.25;100.00;98194.88;4997079;28;20514;-88
2022/05/25 11:06:52;;;;;;;1.33;1.25;;;;;;;18.65;100.00;98189.81;5039530;28;20112;-88
2022/05/25 11:09:48;;;;;;;2.20;2.00;;;;;;;19.46;100.00;98195.16;5044752;28;20394;-87
2022/05/25 11:12:35;;;;;;;2.20;1.10;;;;;;;19.17;100.00;98187.03;5050560;28;20187;-85
2022/05/25 11:15:06;;;;;;;1.85;1.00;;;;;;;19.24;100.00;98169.69;5041759;28;20048;-86
2022/05/25 11:17:38;;;;;;;1.10;1.00;;;;;;;19.27;100.00;98185.13;5046473;28;20030;-85
2022/05/25 11:20:52;;;;;;;1.35;1.17;;;;;;;19.79;100.00;98184.06;5041849;28;20486;-87
2022/05/25 11:23:31;;;;;;;2.67;1.20;;;;;;;18.20;100.00;98181.59;4991616;28;20038;-87
2022/05/25 11:26:24;;;;;;;1.00;1.00;;;;;;;19.46;100.00;98181.84;5041679;28;20044;-87
2022/05/25 11:29:14;;;;;;;1.00;1.00;;;;;;;18.69;100.00;98186.34;5037342;28;20037;-84
2022/05/25 11:31:46;;;;;;;1.25;1.15;;;;;;;18.87;100.00;98189.50;5042205;28;20049;-86
2022/05/25 11:34:24;;;;;;;1.52;1.02;;;;;;;19.22;100.00;98189.66;5042295;28;20025;-89
2022/05/25 11:36:59;;;;;;;1.58;1.20;;;;;;;18.80;100.00;98191.63;5036584;28;20032;-89
2022/05/25 11:39:36;;;;;;;2.38;1.33;;;;;;;19.32;100.00;98196.81;5040979;28;20036;-90
2022/05/25 11:42:11;;;;;;;2.10;1.27;;;;;;;18.87;100.00;98192.16;5042449;28;20033;-88
2022/05/25 11:44:57;;;;;;;5.50;1.65;;;;;;;18.84;100.00;98188.16;5041153;28;20039;-86
2022/05/25 11:47:40;;;;;;;1.43;1.30;;;;;;;19.92;100.00;98193.31;5041295;28;20036;-87
2022/05/25 11:50:12;;;;;;;2.60;1.30;;;;;;;19.37;100.00;98207.44;5036241;28;20021;-85
2022/05/25 11:52:56;;;;;;;2.78;1.38;;;;;;;19.13;100.00;98221.34;5038206;28;20091;-88
2022/05/25 11:55:22;;;;;;;1.67;1.30;;;;;;;17.96;100.00;98224.56;5040114;28;20036;-86
2022/05/25 11:58:00;;;;;;;3.40;1.65;;;;;;;18.15;100.00;98234.72;5045782;28;20467;-86
2022/05/25 12:00:44;;;;;;;1.80;1.70;;;;;;;18.03;100.00;98235.75;5035215;28;20056;-85
2022/05/25 12:03:15;;;;;;;3.10;2.40;;;;;;;17.96;100.00;98228.00;5043079;28;20391;-86
2022/05/25 12:06:15;;;;;;;5.03;4.53;;;;;;;17.09;100.00;98245.22;5024629;28;20086;-88